createdAt,value
2023-03-18T00:01:04.152Z,10.06
2023-03-18T00:03:32.564Z,10.04
2023-03-18T00:06:08.507Z,10.04
2023-03-18T00:08:37.157Z,10.02
2023-03-18T00:11:08.203Z,9.98
2023-03-18T00:13:36.203Z,9.95
2023-03-18T00:16:07.011Z,9.74
2023-03-18T00:18:35.391Z,9.77
2023-03-18T00:21:03.901Z,9.71
2023-03-18T00:23:32.304Z,9.65
2023-03-18T00:26:00.787Z,9.58
2023-03-18T00:28:29.243Z,9.55
2023-03-18T00:30:58.358Z,9.42
2023-03-18T00:33:27.601Z,9.38
2023-03-18T00:35:55.592Z,9.36
2023-03-18T00:38:24.594Z,9.32
2023-03-18T00:41:01.713Z,9.26
2023-03-18T00:43:33.659Z,9.22
2023-03-18T00:46:01.784Z,9.22
2023-03-18T00:48:31.494Z,9.15
2023-03-18T00:50:59.343Z,9.19
2023-03-18T00:53:27.143Z,9.15
2023-03-18T00:55:55.383Z,9.12
2023-03-18T00:58:23.241Z,9.13
2023-03-18T01:00:51.140Z,9.11
2023-03-18T01:03:19.770Z,9.12
2023-03-18T01:05:49.047Z,9.10
2023-03-18T01:08:17.438Z,9.06
2023-03-18T01:10:45.282Z,9.06
2023-03-18T01:13:13.462Z,9.07
2023-03-18T01:15:41.916Z,9.05
2023-03-18T01:18:11.182Z,9.06
2023-03-18T01:20:39.536Z,9.09
2023-03-18T01:23:08.915Z,9.11
2023-03-18T01:25:37.437Z,9.11
2023-03-18T01:28:06.340Z,8.99
2023-03-18T01:30:35.562Z,9.03
2023-03-18T01:33:04.649Z,9.06
2023-03-18T01:35:33.283Z,9.04
2023-03-18T01:38:04.410Z,8.95
2023-03-18T01:40:34.922Z,8.85
2023-03-18T01:43:14.454Z,8.81
2023-03-18T01:45:45.542Z,8.77
2023-03-18T01:48:16.357Z,8.76
2023-03-18T01:50:44.901Z,8.79
2023-03-18T01:53:15.449Z,8.78
2023-03-18T01:55:45.248Z,8.79
2023-03-18T01:58:18.647Z,8.72
2023-03-18T02:00:51.701Z,8.63
2023-03-18T02:03:21.058Z,8.56
2023-03-18T02:05:50.383Z,8.52
2023-03-18T02:08:18.699Z,8.49
2023-03-18T02:10:49.195Z,8.39
2023-03-18T02:13:17.826Z,8.34
2023-03-18T02:15:49.054Z,8.26
2023-03-18T02:18:20.035Z,8.22
2023-03-18T02:21:08.483Z,8.22
2023-03-18T02:23:43.509Z,8.24
2023-03-18T02:26:18.131Z,8.25
2023-03-18T02:28:48.416Z,8.25
2023-03-18T02:31:18.193Z,8.27
2023-03-18T02:33:46.210Z,8.29
2023-03-18T02:36:19.727Z,8.30
2023-03-18T02:38:47.990Z,8.25
2023-03-18T02:41:18.910Z,8.21
2023-03-18T02:43:48.494Z,8.25
2023-03-18T02:46:25.645Z,8.21
2023-03-18T02:48:54.353Z,8.11
2023-03-18T02:51:23.321Z,7.99
2023-03-18T02:53:51.750Z,7.94
2023-03-18T02:56:19.553Z,7.90
2023-03-18T02:58:51.241Z,7.85
2023-03-18T03:01:19.593Z,7.77
2023-03-18T03:03:47.422Z,7.71
2023-03-18T03:06:15.329Z,7.67
2023-03-18T03:08:43.150Z,7.65
2023-03-18T03:11:11.529Z,7.65
2023-03-18T03:13:39.942Z,7.39
2023-03-18T03:16:10.764Z,7.61
2023-03-18T03:18:38.634Z,7.55
2023-03-18T03:21:07.880Z,7.53
2023-03-18T03:23:36.677Z,7.49
2023-03-18T03:26:05.278Z,7.44
2023-03-18T03:28:34.410Z,7.42
2023-03-18T03:31:02.414Z,7.45
2023-03-18T03:33:31.805Z,7.50
2023-03-18T03:35:59.715Z,7.52
2023-03-18T03:38:27.611Z,7.50
2023-03-18T03:40:55.418Z,7.51
2023-03-18T03:43:23.188Z,7.49
2023-03-18T03:45:50.991Z,7.50
2023-03-18T03:48:18.796Z,7.53
2023-03-18T03:50:49.211Z,7.54
2023-03-18T03:53:16.974Z,7.65
2023-03-18T03:55:44.806Z,7.69
2023-03-18T03:58:12.594Z,7.71
2023-03-18T04:00:40.337Z,7.75
2023-03-18T04:03:08.154Z,7.79
2023-03-18T04:05:35.943Z,7.80
2023-03-18T04:08:05.251Z,7.83
2023-03-18T04:10:34.839Z,7.84
2023-03-18T04:13:03.227Z,7.84
2023-03-18T04:15:31.022Z,7.83
2023-03-18T04:17:58.963Z,7.85
2023-03-18T04:20:27.667Z,7.84
2023-03-18T04:22:55.446Z,7.83
2023-03-18T04:25:24.699Z,7.80
2023-03-18T04:27:52.785Z,7.80
2023-03-18T04:30:23.358Z,7.79
2023-03-18T04:32:51.913Z,7.83
2023-03-18T04:35:21.055Z,7.85
2023-03-18T04:37:48.845Z,7.87
2023-03-18T04:40:16.989Z,7.86
2023-03-18T04:42:47.816Z,7.86
2023-03-18T04:45:16.807Z,7.84
2023-03-18T04:47:45.322Z,7.81
2023-03-18T04:50:14.340Z,7.80
2023-03-18T04:52:42.810Z,7.85
2023-03-18T04:55:11.781Z,7.90
2023-03-18T04:57:39.826Z,7.91
2023-03-18T05:00:12.009Z,7.94
2023-03-18T05:02:40.125Z,7.92
2023-03-18T05:05:08.715Z,7.93
2023-03-18T05:07:36.850Z,7.89
2023-03-18T05:10:06.858Z,7.83
2023-03-18T05:12:34.789Z,7.81
2023-03-18T05:15:02.541Z,7.80
2023-03-18T05:17:31.752Z,7.71
2023-03-18T05:19:59.567Z,7.80
2023-03-18T05:22:27.553Z,7.75
2023-03-18T05:24:55.883Z,7.71
2023-03-18T05:27:23.897Z,7.66
2023-03-18T05:29:51.758Z,7.61
2023-03-18T05:32:19.620Z,7.56
2023-03-18T05:34:48.719Z,7.53
2023-03-18T05:37:16.940Z,7.51
2023-03-18T05:39:45.440Z,7.49
2023-03-18T05:42:14.251Z,7.45
2023-03-18T05:44:42.247Z,7.41
2023-03-18T05:47:10.590Z,7.35
2023-03-18T05:49:38.442Z,7.28
2023-03-18T05:52:07.670Z,7.23
2023-03-18T05:54:35.422Z,7.17
2023-03-18T05:57:03.236Z,7.18
2023-03-18T05:59:31.977Z,7.17
2023-03-18T06:02:00.509Z,7.16
2023-03-18T06:04:28.840Z,7.16
2023-03-18T06:06:57.067Z,7.15
2023-03-18T06:09:27.353Z,7.12
2023-03-18T06:11:55.343Z,7.12
2023-03-18T06:14:25.948Z,7.14
2023-03-18T06:16:54.277Z,7.13
2023-03-18T06:19:22.157Z,7.24
2023-03-18T06:21:50.964Z,7.31
2023-03-18T06:24:18.853Z,7.39
2023-03-18T06:26:47.990Z,7.48
2023-03-18T06:29:16.415Z,7.59
2023-03-18T06:31:44.200Z,7.71
2023-03-18T06:34:13.119Z,7.82
2023-03-18T06:36:40.916Z,7.93
2023-03-18T06:39:08.758Z,8.08
2023-03-18T06:41:36.507Z,8.18
2023-03-18T06:44:06.222Z,8.32
2023-03-18T06:46:34.126Z,8.38
2023-03-18T06:49:02.376Z,8.53
2023-03-18T06:51:30.242Z,8.63
2023-03-18T06:53:58.059Z,8.72
2023-03-18T06:56:25.911Z,8.76
2023-03-18T06:58:54.329Z,8.81
2023-03-18T07:01:23.559Z,8.79
2023-03-18T07:03:51.586Z,8.79
2023-03-18T07:06:19.843Z,8.75
2023-03-18T07:08:47.635Z,8.80
2023-03-18T07:11:16.697Z,8.82
2023-03-18T07:13:44.744Z,8.88
2023-03-18T07:16:12.802Z,8.98
2023-03-18T07:18:42.802Z,9.00
2023-03-18T07:21:11.420Z,9.22
2023-03-18T07:23:41.138Z,9.35
2023-03-18T07:26:09.072Z,9.49
2023-03-18T07:28:36.941Z,9.55
2023-03-18T07:31:04.831Z,9.58
2023-03-18T07:33:33.244Z,9.59
2023-03-18T07:36:02.988Z,9.62
2023-03-18T07:38:30.973Z,9.75
2023-03-18T07:40:58.725Z,9.76
2023-03-18T07:43:27.229Z,9.84
2023-03-18T07:45:55.740Z,9.85
2023-03-18T07:48:23.535Z,9.95
2023-03-18T07:50:51.457Z,10.04
2023-03-18T07:53:21.099Z,10.05
2023-03-18T07:55:48.929Z,10.07
2023-03-18T07:58:16.716Z,10.16
2023-03-18T08:00:45.142Z,10.29
2023-03-18T08:03:13.994Z,10.29
2023-03-18T08:05:42.173Z,10.43
2023-03-18T08:08:09.920Z,10.56
2023-03-18T08:10:39.146Z,10.36
2023-03-18T08:13:06.932Z,10.75
2023-03-18T08:15:35.311Z,10.84
2023-03-18T08:18:03.349Z,10.95
2023-03-18T08:20:31.160Z,11.10
2023-03-18T08:22:59.249Z,11.29
2023-03-18T08:25:27.112Z,11.33
2023-03-18T08:27:56.734Z,11.43
2023-03-18T08:30:28.746Z,11.56
2023-03-18T08:32:57.418Z,11.59
2023-03-18T08:35:25.854Z,11.93
2023-03-18T08:37:53.884Z,11.93
2023-03-18T08:40:21.754Z,12.13
2023-03-18T08:42:49.519Z,12.10
2023-03-18T08:45:19.392Z,12.03
2023-03-18T08:47:47.347Z,12.10
2023-03-18T08:50:15.570Z,12.21
2023-03-18T08:52:43.469Z,12.20
2023-03-18T08:55:11.641Z,12.19
2023-03-18T08:57:39.805Z,12.41
2023-03-18T09:00:09.045Z,12.55
2023-03-18T09:02:38.294Z,12.68
2023-03-18T09:05:07.049Z,12.88
2023-03-18T09:07:34.875Z,13.22
2023-03-18T09:10:02.645Z,13.38
2023-03-18T09:12:30.825Z,13.38
2023-03-18T09:14:59.009Z,13.39
2023-03-18T09:17:43.762Z,12.94
2023-03-18T09:20:18.051Z,12.88
2023-03-18T09:22:46.926Z,12.91
2023-03-18T09:25:14.803Z,12.69
2023-03-18T09:27:43.896Z,12.83
2023-03-18T09:30:12.717Z,12.98
2023-03-18T09:32:40.592Z,12.95
2023-03-18T09:35:13.022Z,13.13
2023-03-18T09:37:42.409Z,13.53
2023-03-18T09:40:20.818Z,13.78
2023-03-18T09:42:57.196Z,13.87
2023-03-18T09:45:29.624Z,14.20
2023-03-18T09:48:05.960Z,14.25
2023-03-18T09:50:39.612Z,14.59
2023-03-18T09:53:15.573Z,14.67
2023-03-18T09:55:47.012Z,14.51
2023-03-18T09:58:21.643Z,14.18
2023-03-18T10:00:49.568Z,14.19
2023-03-18T10:03:25.761Z,14.16
2023-03-18T10:05:55.399Z,14.32
2023-03-18T10:08:35.913Z,14.29
2023-03-18T10:11:08.051Z,14.40
2023-03-18T10:13:40.152Z,14.24
2023-03-18T10:16:14.674Z,14.36
2023-03-18T10:18:43.340Z,14.32
2023-03-18T10:21:17.845Z,14.16
2023-03-18T10:23:51.671Z,14.09
2023-03-18T10:26:22.431Z,13.73
2023-03-18T10:29:09.006Z,13.39
2023-03-18T10:31:48.208Z,13.65
2023-03-18T10:34:17.576Z,13.84
2023-03-18T10:36:51.575Z,14.33
2023-03-18T10:39:24.876Z,14.47
2023-03-18T10:41:53.590Z,14.52
2023-03-18T10:44:23.894Z,14.42
2023-03-18T10:46:57.337Z,14.68
2023-03-18T10:49:29.080Z,15.09
2023-03-18T10:52:14.524Z,15.13
2023-03-18T10:54:46.675Z,15.19
2023-03-18T10:57:15.862Z,15.27
2023-03-18T10:59:45.483Z,15.32
2023-03-18T11:02:19.668Z,15.57
2023-03-18T11:04:49.921Z,15.76
2023-03-18T11:07:19.830Z,15.31
2023-03-18T11:09:49.037Z,15.05
2023-03-18T11:12:19.447Z,15.12
2023-03-18T11:14:49.550Z,15.12
2023-03-18T11:17:23.346Z,15.07
2023-03-18T11:20:00.831Z,15.03
2023-03-18T11:22:29.012Z,14.94
2023-03-18T11:25:07.223Z,15.03
2023-03-18T11:27:39.086Z,14.95
2023-03-18T11:30:21.452Z,15.57
2023-03-18T11:33:00.361Z,16.00
2023-03-18T11:35:34.339Z,16.26
2023-03-18T11:38:04.271Z,16.61
2023-03-18T11:40:33.865Z,16.19
2023-03-18T11:43:04.589Z,16.08
2023-03-18T11:45:40.516Z,16.24
2023-03-18T11:48:15.621Z,16.42
2023-03-18T11:50:51.780Z,16.64
2023-03-18T11:53:27.373Z,16.52
2023-03-18T11:55:59.680Z,16.71
2023-03-18T11:58:58.189Z,16.85
2023-03-18T12:01:32.932Z,16.88
2023-03-18T12:04:21.989Z,16.83
2023-03-18T12:06:59.092Z,17.07
2023-03-18T12:09:31.483Z,17.22
2023-03-18T12:12:10.092Z,16.76
2023-03-18T12:14:42.336Z,16.53
2023-03-18T12:17:27.083Z,16.21
2023-03-18T12:20:32.635Z,16.21
2023-03-18T12:23:05.470Z,16.15
2023-03-18T12:25:42.799Z,16.04
2023-03-18T12:28:20.856Z,16.00
2023-03-18T12:30:57.392Z,16.13
2023-03-18T12:33:34.127Z,16.38
2023-03-18T12:36:09.227Z,16.62
2023-03-18T12:38:46.189Z,16.36
2023-03-18T12:41:18.546Z,16.45
2023-03-18T12:44:08.890Z,16.70
2023-03-18T12:46:41.382Z,16.80
2023-03-18T12:49:13.167Z,16.51
2023-03-18T12:51:45.949Z,16.55
2023-03-18T12:54:19.137Z,16.55
2023-03-18T12:56:51.119Z,16.64
2023-03-18T12:59:24.723Z,16.58
2023-03-18T13:02:03.769Z,16.52
2023-03-18T13:04:35.978Z,16.27
2023-03-18T13:07:08.359Z,16.10
2023-03-18T13:09:39.625Z,15.77
2023-03-18T13:12:10.126Z,15.70
2023-03-18T13:14:47.412Z,15.94
2023-03-18T13:17:17.759Z,15.87
2023-03-18T13:19:46.170Z,15.70
2023-03-18T13:22:29.796Z,15.94
2023-03-18T13:25:12.730Z,16.18
2023-03-18T13:27:48.592Z,16.04
2023-03-18T13:30:25.358Z,15.84
2023-03-18T13:33:19.256Z,15.54
2023-03-18T13:36:07.082Z,15.42
2023-03-18T13:38:56.844Z,15.06
2023-03-18T13:41:50.394Z,15.21
2023-03-18T13:44:23.420Z,15.40
2023-03-18T13:46:59.363Z,15.45
2023-03-18T13:49:29.894Z,15.37
2023-03-18T13:51:59.833Z,15.25
2023-03-18T13:54:34.735Z,15.25
2023-03-18T13:57:18.804Z,15.33
2023-03-18T13:59:48.707Z,15.35
2023-03-18T14:02:46.017Z,15.49
2023-03-18T14:05:36.967Z,15.68
2023-03-18T14:08:06.417Z,15.91
2023-03-18T14:10:34.290Z,16.41
2023-03-18T14:13:27.250Z,17.05
2023-03-18T14:15:57.346Z,17.48
2023-03-18T14:18:29.046Z,17.25
2023-03-18T14:21:04.632Z,16.92
2023-03-18T14:23:39.323Z,16.99
2023-03-18T14:26:09.560Z,17.03
2023-03-18T14:28:43.403Z,17.13
2023-03-18T14:31:34.210Z,16.84
2023-03-18T14:34:28.907Z,16.69
2023-03-18T14:37:18.959Z,16.35
2023-03-18T14:39:47.908Z,16.23
2023-03-18T14:42:28.727Z,16.32
2023-03-18T14:45:02.343Z,16.21
2023-03-18T14:47:40.723Z,16.15
2023-03-18T14:50:17.082Z,16.06
2023-03-18T14:52:51.347Z,15.89
2023-03-18T14:55:22.157Z,16.15
2023-03-18T14:57:50.007Z,16.21
2023-03-18T15:00:19.423Z,16.18
2023-03-18T15:02:47.360Z,16.24
2023-03-18T15:05:19.251Z,16.10
2023-03-18T15:07:51.499Z,15.96
2023-03-18T15:10:24.541Z,15.77
2023-03-18T15:12:59.665Z,16.29
2023-03-18T15:15:28.591Z,16.77
2023-03-18T15:17:56.380Z,17.35
2023-03-18T15:20:25.928Z,17.21
2023-03-18T15:22:54.246Z,17.06
2023-03-18T15:25:24.469Z,17.06
2023-03-18T15:27:56.077Z,16.81
2023-03-18T15:30:27.476Z,17.04
2023-03-18T15:33:04.291Z,17.47
2023-03-18T15:35:34.000Z,17.85
2023-03-18T15:38:08.049Z,18.14
2023-03-18T15:40:36.751Z,18.32
2023-03-18T15:43:07.148Z,18.43
2023-03-18T15:45:35.657Z,18.81
2023-03-18T15:48:08.432Z,19.02
2023-03-18T15:50:42.381Z,19.06
2023-03-18T15:53:20.056Z,19.14
2023-03-18T15:55:49.640Z,19.09
2023-03-18T15:58:23.151Z,18.94
2023-03-18T16:00:52.973Z,18.87
2023-03-18T16:03:23.751Z,19.23
2023-03-18T16:05:57.154Z,19.23
2023-03-18T16:08:25.491Z,19.08
2023-03-18T16:10:56.641Z,18.83
2023-03-18T16:13:26.318Z,18.62
2023-03-18T16:15:54.392Z,18.35
2023-03-18T16:18:22.764Z,18.53
2023-03-18T16:20:51.223Z,18.49
2023-03-18T16:23:20.972Z,18.15
2023-03-18T16:25:51.365Z,18.03
2023-03-18T16:28:22.124Z,18.44
2023-03-18T16:30:52.156Z,18.62
2023-03-18T16:33:20.848Z,18.90
2023-03-18T16:35:53.869Z,19.11
2023-03-18T16:38:23.135Z,19.03
2023-03-18T16:40:53.812Z,18.59
2023-03-18T16:43:23.856Z,18.68
2023-03-18T16:45:52.178Z,18.96
2023-03-18T16:48:21.885Z,19.21
2023-03-18T16:50:51.148Z,19.22
2023-03-18T16:53:21.643Z,18.84
2023-03-18T16:55:52.131Z,18.72
2023-03-18T16:58:22.442Z,18.55
2023-03-18T17:00:51.219Z,17.98
2023-03-18T17:03:19.998Z,17.78
2023-03-18T17:05:50.599Z,17.87
2023-03-18T17:08:19.118Z,17.52
2023-03-18T17:10:48.194Z,16.95
2023-03-18T17:13:20.498Z,16.71
2023-03-18T17:15:48.682Z,16.50
2023-03-18T17:18:18.071Z,16.43
2023-03-18T17:20:47.226Z,16.24
2023-03-18T17:23:20.472Z,16.11
2023-03-18T17:25:52.388Z,15.95
2023-03-18T17:28:29.873Z,15.77
2023-03-18T17:30:57.847Z,15.66
2023-03-18T17:33:27.587Z,15.53
2023-03-18T17:35:56.561Z,15.43
2023-03-18T17:38:24.951Z,15.30
2023-03-18T17:40:53.298Z,15.16
2023-03-18T17:43:27.684Z,15.06
2023-03-18T17:45:56.727Z,14.90
2023-03-18T17:48:26.192Z,14.74
2023-03-18T17:50:56.251Z,14.59
2023-03-18T17:53:26.900Z,14.48
2023-03-18T17:55:55.607Z,14.41
2023-03-18T17:58:26.096Z,14.34
2023-03-18T18:00:55.638Z,14.26
2023-03-18T18:03:26.720Z,14.18
2023-03-18T18:05:55.401Z,14.11
2023-03-18T18:08:25.469Z,14.03
2023-03-18T18:10:54.488Z,13.97
2023-03-18T18:13:24.092Z,13.91
2023-03-18T18:15:52.775Z,13.85
2023-03-18T18:18:26.327Z,13.78
2023-03-18T18:20:56.466Z,13.69
2023-03-18T18:23:30.040Z,13.63
2023-03-18T18:26:00.157Z,13.56
2023-03-18T18:28:33.134Z,13.53
2023-03-18T18:31:02.514Z,13.46
2023-03-18T18:33:34.045Z,13.46
2023-03-18T18:36:02.446Z,13.41
2023-03-18T18:38:30.857Z,13.36
2023-03-18T18:41:00.182Z,13.33
2023-03-18T18:43:28.830Z,13.27
2023-03-18T18:45:57.805Z,13.23
2023-03-18T18:48:28.738Z,13.18
2023-03-18T18:50:58.571Z,13.12
2023-03-18T18:53:28.230Z,13.05
2023-03-18T18:55:57.911Z,13.00
2023-03-18T18:58:29.468Z,12.96
2023-03-18T19:00:57.700Z,12.93
2023-03-18T19:03:26.932Z,12.86
2023-03-18T19:05:55.754Z,12.85
2023-03-18T19:08:26.802Z,12.74
2023-03-18T19:10:56.421Z,12.77
2023-03-18T19:13:24.896Z,12.74
2023-03-18T19:15:53.443Z,12.71
2023-03-18T19:18:22.535Z,12.70
2023-03-18T19:20:51.068Z,12.66
2023-03-18T19:23:23.109Z,12.61
2023-03-18T19:25:53.427Z,12.54
2023-03-18T19:28:47.813Z,12.53
2023-03-18T19:31:20.949Z,12.48
2023-03-18T19:33:50.767Z,12.37
2023-03-18T19:36:24.269Z,12.32
2023-03-18T19:38:52.671Z,12.31
2023-03-18T19:41:22.553Z,12.27
2023-03-18T19:43:50.857Z,12.18
2023-03-18T19:46:27.710Z,12.14
2023-03-18T19:48:55.549Z,11.92
2023-03-18T19:51:23.439Z,12.02
2023-03-18T19:53:51.258Z,11.96
2023-03-18T19:56:25.485Z,11.90
2023-03-18T19:58:54.143Z,11.68
2023-03-18T20:01:23.006Z,11.81
2023-03-18T20:03:53.741Z,11.77
2023-03-18T20:06:21.877Z,11.70
2023-03-18T20:08:50.453Z,11.65
2023-03-18T20:11:20.910Z,11.54
2023-03-18T20:13:50.205Z,11.54
2023-03-18T20:16:19.584Z,11.51
2023-03-18T20:18:47.614Z,11.45
2023-03-18T20:21:20.519Z,11.43
2023-03-18T20:23:48.521Z,11.41
2023-03-18T20:26:16.719Z,11.35
2023-03-18T20:28:45.824Z,11.29
2023-03-18T20:31:15.228Z,11.26
2023-03-18T20:33:43.436Z,11.22
2023-03-18T20:36:15.946Z,11.21
2023-03-18T20:38:44.611Z,11.18
2023-03-18T20:41:16.476Z,11.17
2023-03-18T20:43:44.698Z,11.17
2023-03-18T20:46:15.635Z,11.14
2023-03-18T20:48:44.161Z,11.15
2023-03-18T20:51:20.202Z,11.14
2023-03-18T20:53:48.424Z,11.12
2023-03-18T20:56:16.581Z,11.10
2023-03-18T20:58:44.459Z,11.10
2023-03-18T21:01:14.919Z,11.10
2023-03-18T21:03:43.153Z,11.12
2023-03-18T21:06:14.066Z,11.10
2023-03-18T21:08:42.182Z,11.12
2023-03-18T21:11:18.197Z,11.08
2023-03-18T21:13:46.199Z,11.10
2023-03-18T21:16:16.808Z,11.10
2023-03-18T21:18:46.157Z,11.07
2023-03-18T21:21:20.712Z,11.07
2023-03-18T21:23:49.000Z,11.05
2023-03-18T21:26:16.962Z,11.08
2023-03-18T21:28:44.814Z,11.12
2023-03-18T21:31:23.462Z,11.12
2023-03-18T21:33:51.544Z,11.15
2023-03-18T21:36:19.396Z,11.09
2023-03-18T21:38:47.230Z,11.18
2023-03-18T21:41:22.196Z,11.18
2023-03-18T21:43:51.029Z,11.18
2023-03-18T21:46:22.025Z,11.17
2023-03-18T21:48:50.011Z,11.18
2023-03-18T21:51:37.525Z,11.19
2023-03-18T21:54:05.765Z,11.19
2023-03-18T21:56:33.588Z,11.19
2023-03-18T21:59:01.391Z,11.17
2023-03-18T22:01:32.388Z,11.09
2023-03-18T22:04:00.415Z,11.20
2023-03-18T22:06:28.293Z,11.19
2023-03-18T22:08:57.377Z,11.20
2023-03-18T22:11:25.633Z,11.24
2023-03-18T22:13:54.005Z,11.26
2023-03-18T22:16:22.010Z,11.27
2023-03-18T22:18:51.349Z,11.27
2023-03-18T22:21:22.607Z,11.27
2023-03-18T22:23:50.770Z,11.29
2023-03-18T22:26:19.912Z,11.28
2023-03-18T22:28:48.428Z,11.29
2023-03-18T22:31:19.617Z,11.28
2023-03-18T22:33:47.753Z,11.30
2023-03-18T22:36:18.151Z,11.33
2023-03-18T22:38:46.282Z,11.33
2023-03-18T22:41:17.435Z,11.33
2023-03-18T22:43:45.262Z,11.34
2023-03-18T22:46:13.536Z,11.35
2023-03-18T22:48:41.449Z,11.35
2023-03-18T22:51:09.465Z,11.35
2023-03-18T22:53:40.609Z,11.35
2023-03-18T22:56:10.561Z,11.35
2023-03-18T22:58:38.922Z,11.33
2023-03-18T23:01:07.313Z,11.34
2023-03-18T23:03:40.572Z,11.32
2023-03-18T23:06:08.671Z,11.31
2023-03-18T23:08:38.024Z,11.32
2023-03-18T23:11:06.387Z,11.30
2023-03-18T23:13:37.141Z,11.33
2023-03-18T23:16:06.122Z,11.35
2023-03-18T23:18:34.288Z,11.39
2023-03-18T23:21:02.671Z,11.45
2023-03-18T23:23:30.810Z,11.52
2023-03-18T23:26:00.209Z,11.55
2023-03-18T23:28:28.003Z,11.56
2023-03-18T23:30:56.302Z,11.60
2023-03-18T23:33:24.197Z,11.61
2023-03-18T23:35:52.075Z,11.62
2023-03-18T23:38:20.348Z,11.62
2023-03-18T23:40:48.213Z,11.60
2023-03-18T23:43:17.471Z,11.59
2023-03-18T23:45:45.833Z,11.57
2023-03-18T23:48:13.890Z,11.56
2023-03-18T23:50:41.861Z,11.55
2023-03-18T23:53:09.867Z,11.53
2023-03-18T23:55:37.803Z,11.50
2023-03-18T23:58:05.874Z,11.49
